sensor_id;sensor_type;location;lat;lon;timestamp;temperature;humidity
52459;DHT22;38372;52.902;6.024;2023-07-13T00:01:51;17.00;99.90
52459;DHT22;38372;52.902;6.024;2023-07-13T00:04:19;17.00;99.90
52459;DHT22;38372;52.902;6.024;2023-07-13T00:06:46;16.90;99.90
52459;DHT22;38372;52.902;6.024;2023-07-13T00:09:13;16.90;99.90
52459;DHT22;38372;52.902;6.024;2023-07-13T00:11:40;16.80;99.90
52459;DHT22;38372;52.902;6.024;2023-07-13T00:14:07;16.80;99.90
52459;DHT22;38372;52.902;6.024;2023-07-13T00:16:37;16.70;99.90
52459;DHT22;38372;52.902;6.024;2023-07-13T00:19:04;16.70;99.90
52459;DHT22;38372;52.902;6.024;2023-07-13T00:21:30;16.60;99.90
52459;DHT22;38372;52.902;6.024;2023-07-13T00:23:57;16.60;99.90
52459;DHT22;38372;52.902;6.024;2023-07-13T00:26:23;16.50;99.90
52459;DHT22;38372;52.902;6.024;2023-07-13T00:28:49;16.50;99.90
52459;DHT22;38372;52.902;6.024;2023-07-13T00:31:15;16.40;99.90
52459;DHT22;38372;52.902;6.024;2023-07-13T00:33:42;16.40;99.90
52459;DHT22;38372;52.902;6.024;2023-07-13T00:36:08;16.40;99.90
52459;DHT22;38372;52.902;6.024;2023-07-13T00:38:35;16.40;99.90
52459;DHT22;38372;52.902;6.024;2023-07-13T00:41:01;16.40;99.90
52459;DHT22;38372;52.902;6.024;2023-07-13T00:43:29;16.40;99.90
52459;DHT22;38372;52.902;6.024;2023-07-13T00:48:27;16.30;99.90
52459;DHT22;38372;52.902;6.024;2023-07-13T00:50:57;16.40;99.90
52459;DHT22;38372;52.902;6.024;2023-07-13T00:53:26;16.40;99.90
52459;DHT22;38372;52.902;6.024;2023-07-13T00:55:55;16.40;99.90
52459;DHT22;38372;52.902;6.024;2023-07-13T00:58:21;16.30;99.90
52459;DHT22;38372;52.902;6.024;2023-07-13T01:00:48;16.30;99.90
52459;DHT22;38372;52.902;6.024;2023-07-13T01:03:15;16.30;99.90
52459;DHT22;38372;52.902;6.024;2023-07-13T01:05:41;16.30;99.90
52459;DHT22;38372;52.902;6.024;2023-07-13T01:08:07;16.30;99.90
52459;DHT22;38372;52.902;6.024;2023-07-13T01:10:33;16.30;99.90
52459;DHT22;38372;52.902;6.024;2023-07-13T01:13:05;16.30;99.90
52459;DHT22;38372;52.902;6.024;2023-07-13T01:15:44;16.30;99.90
52459;DHT22;38372;52.902;6.024;2023-07-13T01:18:14;16.30;99.90
52459;DHT22;38372;52.902;6.024;2023-07-13T01:20:41;16.20;99.90
52459;DHT22;38372;52.902;6.024;2023-07-13T01:23:09;16.20;99.90
52459;DHT22;38372;52.902;6.024;2023-07-13T01:25:37;16.20;99.90
52459;DHT22;38372;52.902;6.024;2023-07-13T01:28:08;16.10;99.90
52459;DHT22;38372;52.902;6.024;2023-07-13T01:30:38;16.00;99.90
52459;DHT22;38372;52.902;6.024;2023-07-13T01:33:09;16.00;99.90
52459;DHT22;38372;52.902;6.024;2023-07-13T01:35:35;15.90;99.90
52459;DHT22;38372;52.902;6.024;2023-07-13T01:38:01;15.90;99.90
52459;DHT22;38372;52.902;6.024;2023-07-13T01:40:29;15.80;99.90
52459;DHT22;38372;52.902;6.024;2023-07-13T01:42:55;15.80;99.90
52459;DHT22;38372;52.902;6.024;2023-07-13T01:45:21;15.80;99.90
52459;DHT22;38372;52.902;6.024;2023-07-13T01:47:47;15.70;99.90
52459;DHT22;38372;52.902;6.024;2023-07-13T01:50:13;15.70;99.90
52459;DHT22;38372;52.902;6.024;2023-07-13T01:52:39;15.70;99.90
52459;DHT22;38372;52.902;6.024;2023-07-13T01:55:05;15.60;99.90
52459;DHT22;38372;52.902;6.024;2023-07-13T01:57:32;15.60;99.90
52459;DHT22;38372;52.902;6.024;2023-07-13T01:59:57;15.60;99.90
52459;DHT22;38372;52.902;6.024;2023-07-13T02:02:23;15.50;99.90
52459;DHT22;38372;52.902;6.024;2023-07-13T02:04:49;15.50;99.90
52459;DHT22;38372;52.902;6.024;2023-07-13T02:07:15;15.50;99.90
52459;DHT22;38372;52.902;6.024;2023-07-13T02:09:41;15.40;99.90
52459;DHT22;38372;52.902;6.024;2023-07-13T02:12:08;15.40;99.90
52459;DHT22;38372;52.902;6.024;2023-07-13T02:14:37;15.30;99.90
52459;DHT22;38372;52.902;6.024;2023-07-13T02:17:05;15.30;99.90
52459;DHT22;38372;52.902;6.024;2023-07-13T02:19:33;15.30;99.90
52459;DHT22;38372;52.902;6.024;2023-07-13T02:21:59;15.30;99.90
52459;DHT22;38372;52.902;6.024;2023-07-13T02:24:26;15.20;99.90
52459;DHT22;38372;52.902;6.024;2023-07-13T02:26:56;15.20;99.90
52459;DHT22;38372;52.902;6.024;2023-07-13T02:29:22;15.10;99.90
52459;DHT22;38372;52.902;6.024;2023-07-13T02:31:51;15.10;99.90
52459;DHT22;38372;52.902;6.024;2023-07-13T02:34:17;15.10;99.90
52459;DHT22;38372;52.902;6.024;2023-07-13T02:36:47;15.00;99.90
52459;DHT22;38372;52.902;6.024;2023-07-13T02:39:14;14.90;99.90
52459;DHT22;38372;52.902;6.024;2023-07-13T02:41:41;14.90;99.90
52459;DHT22;38372;52.902;6.024;2023-07-13T02:44:13;14.90;99.90
52459;DHT22;38372;52.902;6.024;2023-07-13T02:46:49;14.90;99.90
52459;DHT22;38372;52.902;6.024;2023-07-13T02:49:18;14.90;99.90
52459;DHT22;38372;52.902;6.024;2023-07-13T02:51:44;14.90;99.90
52459;DHT22;38372;52.902;6.024;2023-07-13T02:54:11;14.90;99.90
52459;DHT22;38372;52.902;6.024;2023-07-13T02:56:48;15.00;99.90
52459;DHT22;38372;52.902;6.024;2023-07-13T02:59:16;15.00;99.90
52459;DHT22;38372;52.902;6.024;2023-07-13T03:01:47;15.10;99.90
52459;DHT22;38372;52.902;6.024;2023-07-13T03:04:15;15.10;99.90
52459;DHT22;38372;52.902;6.024;2023-07-13T03:06:46;15.20;99.90
52459;DHT22;38372;52.902;6.024;2023-07-13T03:09:14;15.20;99.90
52459;DHT22;38372;52.902;6.024;2023-07-13T03:11:45;15.30;99.90
52459;DHT22;38372;52.902;6.024;2023-07-13T03:14:11;15.30;99.90
52459;DHT22;38372;52.902;6.024;2023-07-13T03:16:41;15.40;99.90
52459;DHT22;38372;52.902;6.024;2023-07-13T03:19:09;15.50;99.90
52459;DHT22;38372;52.902;6.024;2023-07-13T03:21:35;15.50;99.90
52459;DHT22;38372;52.902;6.024;2023-07-13T03:24:03;15.60;99.90
52459;DHT22;38372;52.902;6.024;2023-07-13T03:26:29;15.60;99.90
52459;DHT22;38372;52.902;6.024;2023-07-13T03:28:57;15.60;99.90
52459;DHT22;38372;52.902;6.024;2023-07-13T03:31:30;15.70;99.90
52459;DHT22;38372;52.902;6.024;2023-07-13T03:33:58;15.70;99.90
52459;DHT22;38372;52.902;6.024;2023-07-13T03:36:27;15.80;99.90
52459;DHT22;38372;52.902;6.024;2023-07-13T03:38:57;15.80;99.90
52459;DHT22;38372;52.902;6.024;2023-07-13T03:41:26;15.90;99.90
52459;DHT22;38372;52.902;6.024;2023-07-13T03:43:56;15.90;99.90
52459;DHT22;38372;52.902;6.024;2023-07-13T03:46:25;15.90;99.90
52459;DHT22;38372;52.902;6.024;2023-07-13T03:48:51;16.00;99.90
52459;DHT22;38372;52.902;6.024;2023-07-13T03:51:20;16.00;99.90
52459;DHT22;38372;52.902;6.024;2023-07-13T03:53:50;16.00;99.90
52459;DHT22;38372;52.902;6.024;2023-07-13T03:56:19;16.10;99.90
52459;DHT22;38372;52.902;6.024;2023-07-13T03:58:53;16.10;99.90
52459;DHT22;38372;52.902;6.024;2023-07-13T04:01:23;16.00;99.90
52459;DHT22;38372;52.902;6.024;2023-07-13T04:03:53;16.10;99.90
52459;DHT22;38372;52.902;6.024;2023-07-13T04:06:27;16.00;99.90
52459;DHT22;38372;52.902;6.024;2023-07-13T04:08:58;16.00;99.90
52459;DHT22;38372;52.902;6.024;2023-07-13T04:11:28;16.00;99.90
52459;DHT22;38372;52.902;6.024;2023-07-13T04:14:00;15.90;99.90
52459;DHT22;38372;52.902;6.024;2023-07-13T04:16:26;15.90;99.90
52459;DHT22;38372;52.902;6.024;2023-07-13T04:18:56;16.00;99.90
52459;DHT22;38372;52.902;6.024;2023-07-13T04:21:29;15.90;99.90
52459;DHT22;38372;52.902;6.024;2023-07-13T04:23:55;16.00;99.90
52459;DHT22;38372;52.902;6.024;2023-07-13T04:26:21;16.00;99.90
52459;DHT22;38372;52.902;6.024;2023-07-13T04:28:49;16.00;99.90
52459;DHT22;38372;52.902;6.024;2023-07-13T04:31:19;16.10;99.90
52459;DHT22;38372;52.902;6.024;2023-07-13T04:33:48;16.20;99.90
52459;DHT22;38372;52.902;6.024;2023-07-13T04:36:19;16.20;99.90
52459;DHT22;38372;52.902;6.024;2023-07-13T04:38:50;16.20;99.90
52459;DHT22;38372;52.902;6.024;2023-07-13T04:41:16;16.20;99.90
52459;DHT22;38372;52.902;6.024;2023-07-13T04:43:42;16.30;99.90
52459;DHT22;38372;52.902;6.024;2023-07-13T04:46:12;16.30;99.90
52459;DHT22;38372;52.902;6.024;2023-07-13T04:48:39;16.30;99.90
52459;DHT22;38372;52.902;6.024;2023-07-13T04:51:09;16.30;99.90
52459;DHT22;38372;52.902;6.024;2023-07-13T04:53:36;16.30;99.90
52459;DHT22;38372;52.902;6.024;2023-07-13T04:56:10;16.30;99.90
52459;DHT22;38372;52.902;6.024;2023-07-13T04:58:39;16.20;99.90
52459;DHT22;38372;52.902;6.024;2023-07-13T05:01:06;16.30;99.90
52459;DHT22;38372;52.902;6.024;2023-07-13T05:03:34;16.30;99.90
52459;DHT22;38372;52.902;6.024;2023-07-13T05:06:04;16.30;99.90
52459;DHT22;38372;52.902;6.024;2023-07-13T05:08:35;16.40;99.90
52459;DHT22;38372;52.902;6.024;2023-07-13T05:11:05;16.50;99.90
52459;DHT22;38372;52.902;6.024;2023-07-13T05:13:37;16.60;99.90
52459;DHT22;38372;52.902;6.024;2023-07-13T05:16:12;16.60;99.90
52459;DHT22;38372;52.902;6.024;2023-07-13T05:18:40;16.60;99.90
52459;DHT22;38372;52.902;6.024;2023-07-13T05:21:09;16.60;99.90
52459;DHT22;38372;52.902;6.024;2023-07-13T05:23:39;16.70;99.90
52459;DHT22;38372;52.902;6.024;2023-07-13T05:26:10;16.80;99.90
52459;DHT22;38372;52.902;6.024;2023-07-13T05:28:40;16.90;99.90
52459;DHT22;38372;52.902;6.024;2023-07-13T05:31:10;17.00;99.90
52459;DHT22;38372;52.902;6.024;2023-07-13T05:33:36;17.10;99.90
52459;DHT22;38372;52.902;6.024;2023-07-13T05:36:04;17.20;99.90
52459;DHT22;38372;52.902;6.024;2023-07-13T05:38:30;17.30;99.90
52459;DHT22;38372;52.902;6.024;2023-07-13T05:40:59;17.40;99.90
52459;DHT22;38372;52.902;6.024;2023-07-13T05:43:33;17.40;99.90
52459;DHT22;38372;52.902;6.024;2023-07-13T05:46:02;17.50;99.90
52459;DHT22;38372;52.902;6.024;2023-07-13T05:48:37;17.50;99.90
52459;DHT22;38372;52.902;6.024;2023-07-13T05:51:06;17.60;99.90
52459;DHT22;38372;52.902;6.024;2023-07-13T05:53:35;17.70;99.90
52459;DHT22;38372;52.902;6.024;2023-07-13T05:56:12;17.70;99.90
52459;DHT22;38372;52.902;6.024;2023-07-13T05:58:40;17.70;99.90
52459;DHT22;38372;52.902;6.024;2023-07-13T06:01:12;17.80;99.90
52459;DHT22;38372;52.902;6.024;2023-07-13T06:03:41;17.90;99.90
52459;DHT22;38372;52.902;6.024;2023-07-13T06:06:10;18.00;99.90
52459;DHT22;38372;52.902;6.024;2023-07-13T06:08:36;18.10;99.90
52459;DHT22;38372;52.902;6.024;2023-07-13T06:11:18;18.10;99.90
52459;DHT22;38372;52.902;6.024;2023-07-13T06:13:45;18.20;99.90
52459;DHT22;38372;52.902;6.024;2023-07-13T06:16:14;18.20;99.90
52459;DHT22;38372;52.902;6.024;2023-07-13T06:18:43;18.10;99.90
52459;DHT22;38372;52.902;6.024;2023-07-13T06:21:19;18.10;99.90
52459;DHT22;38372;52.902;6.024;2023-07-13T06:23:51;18.20;99.90
52459;DHT22;38372;52.902;6.024;2023-07-13T06:26:19;18.30;99.90
52459;DHT22;38372;52.902;6.024;2023-07-13T06:28:49;18.50;99.90
52459;DHT22;38372;52.902;6.024;2023-07-13T06:31:15;18.60;99.90
52459;DHT22;38372;52.902;6.024;2023-07-13T06:33:43;18.70;99.90
52459;DHT22;38372;52.902;6.024;2023-07-13T06:36:14;18.70;99.90
52459;DHT22;38372;52.902;6.024;2023-07-13T06:38:40;18.70;99.90
52459;DHT22;38372;52.902;6.024;2023-07-13T06:41:07;18.70;99.90
52459;DHT22;38372;52.902;6.024;2023-07-13T06:43:34;18.80;99.90
52459;DHT22;38372;52.902;6.024;2023-07-13T06:46:00;19.00;99.90
52459;DHT22;38372;52.902;6.024;2023-07-13T06:48:31;19.30;99.90
52459;DHT22;38372;52.902;6.024;2023-07-13T06:50:58;19.70;99.90
52459;DHT22;38372;52.902;6.024;2023-07-13T06:53:26;20.20;99.90
52459;DHT22;38372;52.902;6.024;2023-07-13T06:55:55;20.50;99.90
52459;DHT22;38372;52.902;6.024;2023-07-13T06:58:21;20.50;99.90
52459;DHT22;38372;52.902;6.024;2023-07-13T07:00:53;20.50;99.90
52459;DHT22;38372;52.902;6.024;2023-07-13T07:03:23;20.40;99.90
52459;DHT22;38372;52.902;6.024;2023-07-13T07:05:52;20.30;99.90
52459;DHT22;38372;52.902;6.024;2023-07-13T07:08:19;20.20;99.90
52459;DHT22;38372;52.902;6.024;2023-07-13T07:10:45;20.10;99.90
52459;DHT22;38372;52.902;6.024;2023-07-13T07:13:12;20.00;99.90
52459;DHT22;38372;52.902;6.024;2023-07-13T07:15:49;20.00;99.90
52459;DHT22;38372;52.902;6.024;2023-07-13T07:18:15;19.90;99.90
52459;DHT22;38372;52.902;6.024;2023-07-13T07:20:41;20.00;99.90
52459;DHT22;38372;52.902;6.024;2023-07-13T07:23:09;20.00;99.90
52459;DHT22;38372;52.902;6.024;2023-07-13T07:25:35;20.10;99.90
52459;DHT22;38372;52.902;6.024;2023-07-13T07:28:09;20.40;99.90
52459;DHT22;38372;52.902;6.024;2023-07-13T07:30:36;20.80;99.90
52459;DHT22;38372;52.902;6.024;2023-07-13T07:33:03;21.10;99.90
52459;DHT22;38372;52.902;6.024;2023-07-13T07:35:30;21.20;99.90
52459;DHT22;38372;52.902;6.024;2023-07-13T07:37:59;21.10;99.90
52459;DHT22;38372;52.902;6.024;2023-07-13T07:40:25;20.90;99.90
52459;DHT22;38372;52.902;6.024;2023-07-13T07:42:53;20.70;99.90
52459;DHT22;38372;52.902;6.024;2023-07-13T07:45:21;20.50;99.90
52459;DHT22;38372;52.902;6.024;2023-07-13T07:47:48;20.40;99.90
52459;DHT22;38372;52.902;6.024;2023-07-13T07:50:15;20.40;99.90
52459;DHT22;38372;52.902;6.024;2023-07-13T07:52:41;20.50;99.90
52459;DHT22;38372;52.902;6.024;2023-07-13T07:55:11;20.40;99.90
52459;DHT22;38372;52.902;6.024;2023-07-13T07:57:38;20.40;99.90
52459;DHT22;38372;52.902;6.024;2023-07-13T08:00:06;20.30;99.90
52459;DHT22;38372;52.902;6.024;2023-07-13T08:02:35;20.20;99.90
52459;DHT22;38372;52.902;6.024;2023-07-13T08:05:04;20.20;99.90
52459;DHT22;38372;52.902;6.024;2023-07-13T08:07:37;20.30;99.90
52459;DHT22;38372;52.902;6.024;2023-07-13T08:10:08;20.40;99.90
52459;DHT22;38372;52.902;6.024;2023-07-13T08:12:39;20.50;99.90
52459;DHT22;38372;52.902;6.024;2023-07-13T08:15:11;20.40;99.90
52459;DHT22;38372;52.902;6.024;2023-07-13T08:17:40;20.30;99.90
52459;DHT22;38372;52.902;6.024;2023-07-13T08:20:10;20.10;99.90
52459;DHT22;38372;52.902;6.024;2023-07-13T08:22:37;20.00;99.90
52459;DHT22;38372;52.902;6.024;2023-07-13T08:25:03;19.90;99.90
52459;DHT22;38372;52.902;6.024;2023-07-13T08:27:34;19.90;99.90
52459;DHT22;38372;52.902;6.024;2023-07-13T08:30:01;20.00;99.90
52459;DHT22;38372;52.902;6.024;2023-07-13T08:32:28;20.10;99.90
52459;DHT22;38372;52.902;6.024;2023-07-13T08:34:59;20.30;99.90
52459;DHT22;38372;52.902;6.024;2023-07-13T08:37:30;20.60;99.90
52459;DHT22;38372;52.902;6.024;2023-07-13T08:39:57;20.80;99.90
52459;DHT22;38372;52.902;6.024;2023-07-13T08:42:45;21.10;99.90
52459;DHT22;38372;52.902;6.024;2023-07-13T08:45:22;21.30;99.90
52459;DHT22;38372;52.902;6.024;2023-07-13T08:48:28;21.30;99.90
52459;DHT22;38372;52.902;6.024;2023-07-13T08:53:49;20.70;99.90
52459;DHT22;38372;52.902;6.024;2023-07-13T08:56:21;20.50;99.90
52459;DHT22;38372;52.902;6.024;2023-07-13T08:58:51;20.30;99.90
52459;DHT22;38372;52.902;6.024;2023-07-13T09:04:34;20.10;99.90
52459;DHT22;38372;52.902;6.024;2023-07-13T09:07:39;20.20;99.90
52459;DHT22;38372;52.902;6.024;2023-07-13T09:10:16;20.30;99.90
52459;DHT22;38372;52.902;6.024;2023-07-13T09:13:24;20.40;99.90
52459;DHT22;38372;52.902;6.024;2023-07-13T09:15:49;20.40;99.90
52459;DHT22;38372;52.902;6.024;2023-07-13T09:18:45;20.70;99.90
52459;DHT22;38372;52.902;6.024;2023-07-13T09:21:25;21.20;99.90
52459;DHT22;38372;52.902;6.024;2023-07-13T09:23:56;21.50;99.90
52459;DHT22;38372;52.902;6.024;2023-07-13T09:26:31;21.70;99.90
52459;DHT22;38372;52.902;6.024;2023-07-13T09:29:09;21.80;99.90
52459;DHT22;38372;52.902;6.024;2023-07-13T09:31:45;22.00;99.90
52459;DHT22;38372;52.902;6.024;2023-07-13T09:34:15;22.10;99.90
52459;DHT22;38372;52.902;6.024;2023-07-13T09:36:44;22.40;99.90
52459;DHT22;38372;52.902;6.024;2023-07-13T09:39:35;22.70;99.90
52459;DHT22;38372;52.902;6.024;2023-07-13T09:42:15;23.00;99.90
52459;DHT22;38372;52.902;6.024;2023-07-13T09:45:00;23.40;99.90
52459;DHT22;38372;52.902;6.024;2023-07-13T09:47:39;23.90;99.90
52459;DHT22;38372;52.902;6.024;2023-07-13T09:50:18;24.20;99.90
52459;DHT22;38372;52.902;6.024;2023-07-13T09:52:46;24.40;99.90
52459;DHT22;38372;52.902;6.024;2023-07-13T09:55:37;24.60;99.90
52459;DHT22;38372;52.902;6.024;2023-07-13T10:00:39;24.70;99.90
52459;DHT22;38372;52.902;6.024;2023-07-13T10:03:23;24.60;99.90
52459;DHT22;38372;52.902;6.024;2023-07-13T10:05:54;24.60;98.60
52459;DHT22;38372;52.902;6.024;2023-07-13T10:10:59;24.50;98.30
52459;DHT22;38372;52.902;6.024;2023-07-13T10:13:34;24.60;99.00
52459;DHT22;38372;52.902;6.024;2023-07-13T10:16:04;24.90;99.50
52459;DHT22;38372;52.902;6.024;2023-07-13T10:18:53;25.00;98.70
52459;DHT22;38372;52.902;6.024;2023-07-13T10:21:26;25.00;97.90
52459;DHT22;38372;52.902;6.024;2023-07-13T10:24:26;25.00;98.90
52459;DHT22;38372;52.902;6.024;2023-07-13T10:27:16;25.10;98.40
52459;DHT22;38372;52.902;6.024;2023-07-13T10:29:53;24.80;96.90
52459;DHT22;38372;52.902;6.024;2023-07-13T10:32:23;24.40;97.30
52459;DHT22;38372;52.902;6.024;2023-07-13T10:34:51;24.20;97.70
52459;DHT22;38372;52.902;6.024;2023-07-13T10:37:53;24.30;97.60
52459;DHT22;38372;52.902;6.024;2023-07-13T10:40:56;24.60;96.10
52459;DHT22;38372;52.902;6.024;2023-07-13T10:43:29;24.40;94.90
52459;DHT22;38372;52.902;6.024;2023-07-13T10:46:02;24.30;95.30
52459;DHT22;38372;52.902;6.024;2023-07-13T10:48:30;24.50;94.30
52459;DHT22;38372;52.902;6.024;2023-07-13T10:51:00;24.50;94.50
52459;DHT22;38372;52.902;6.024;2023-07-13T10:53:33;24.50;94.20
52459;DHT22;38372;52.902;6.024;2023-07-13T10:56:06;24.30;94.00
52459;DHT22;38372;52.902;6.024;2023-07-13T10:58:44;24.30;94.10
52459;DHT22;38372;52.902;6.024;2023-07-13T11:01:16;24.40;94.30
52459;DHT22;38372;52.902;6.024;2023-07-13T11:04:00;24.80;94.50
52459;DHT22;38372;52.902;6.024;2023-07-13T11:06:36;25.10;94.20
52459;DHT22;38372;52.902;6.024;2023-07-13T11:09:31;25.20;94.50
52459;DHT22;38372;52.902;6.024;2023-07-13T11:12:01;25.40;93.00
52459;DHT22;38372;52.902;6.024;2023-07-13T11:14:43;25.20;93.20
52459;DHT22;38372;52.902;6.024;2023-07-13T11:17:48;24.90;92.60
52459;DHT22;38372;52.902;6.024;2023-07-13T11:20:23;24.60;92.80
52459;DHT22;38372;52.902;6.024;2023-07-13T11:23:21;24.20;92.50
52459;DHT22;38372;52.902;6.024;2023-07-13T11:25:56;24.00;91.90
52459;DHT22;38372;52.902;6.024;2023-07-13T11:28:30;24.00;92.20
52459;DHT22;38372;52.902;6.024;2023-07-13T11:31:01;23.90;92.20
52459;DHT22;38372;52.902;6.024;2023-07-13T11:36:21;23.70;91.90
52459;DHT22;38372;52.902;6.024;2023-07-13T11:39:18;23.70;91.70
52459;DHT22;38372;52.902;6.024;2023-07-13T11:41:59;23.50;91.80
52459;DHT22;38372;52.902;6.024;2023-07-13T11:44:32;23.50;92.30
52459;DHT22;38372;52.902;6.024;2023-07-13T11:47:10;23.50;91.70
52459;DHT22;38372;52.902;6.024;2023-07-13T11:49:55;23.60;91.70
52459;DHT22;38372;52.902;6.024;2023-07-13T11:52:26;23.70;91.80
52459;DHT22;38372;52.902;6.024;2023-07-13T11:54:56;24.00;91.40
52459;DHT22;38372;52.902;6.024;2023-07-13T11:57:36;24.10;90.90
52459;DHT22;38372;52.902;6.024;2023-07-13T12:00:17;24.10;91.40
52459;DHT22;38372;52.902;6.024;2023-07-13T12:02:58;24.20;91.40
52459;DHT22;38372;52.902;6.024;2023-07-13T12:06:05;24.20;91.20
52459;DHT22;38372;52.902;6.024;2023-07-13T12:08:38;24.30;90.30
52459;DHT22;38372;52.902;6.024;2023-07-13T12:11:16;24.30;90.20
52459;DHT22;38372;52.902;6.024;2023-07-13T12:13:46;24.30;89.80
52459;DHT22;38372;52.902;6.024;2023-07-13T12:16:30;24.40;90.70
52459;DHT22;38372;52.902;6.024;2023-07-13T12:19:00;24.50;90.50
52459;DHT22;38372;52.902;6.024;2023-07-13T12:21:37;24.40;90.00
52459;DHT22;38372;52.902;6.024;2023-07-13T12:24:15;24.30;90.20
52459;DHT22;38372;52.902;6.024;2023-07-13T12:26:43;24.30;88.10
52459;DHT22;38372;52.902;6.024;2023-07-13T12:29:16;24.20;88.10
52459;DHT22;38372;52.902;6.024;2023-07-13T12:31:50;24.10;88.20
52459;DHT22;38372;52.902;6.024;2023-07-13T12:34:53;24.00;87.80
52459;DHT22;38372;52.902;6.024;2023-07-13T12:37:21;24.10;87.30
52459;DHT22;38372;52.902;6.024;2023-07-13T12:39:57;24.10;86.90
52459;DHT22;38372;52.902;6.024;2023-07-13T12:42:31;24.00;86.20
52459;DHT22;38372;52.902;6.024;2023-07-13T12:45:12;23.70;86.20
52459;DHT22;38372;52.902;6.024;2023-07-13T12:47:46;23.60;87.10
52459;DHT22;38372;52.902;6.024;2023-07-13T12:50:18;23.50;86.70
52459;DHT22;38372;52.902;6.024;2023-07-13T12:52:51;23.60;87.20
52459;DHT22;38372;52.902;6.024;2023-07-13T12:55:19;23.70;85.90
52459;DHT22;38372;52.902;6.024;2023-07-13T13:00:32;23.70;85.90
52459;DHT22;38372;52.902;6.024;2023-07-13T13:03:29;23.70;86.00
52459;DHT22;38372;52.902;6.024;2023-07-13T13:06:22;23.70;86.30
52459;DHT22;38372;52.902;6.024;2023-07-13T13:08:52;23.50;86.00
52459;DHT22;38372;52.902;6.024;2023-07-13T13:11:20;23.40;86.50
52459;DHT22;38372;52.902;6.024;2023-07-13T13:13:47;23.30;86.80
52459;DHT22;38372;52.902;6.024;2023-07-13T13:18:57;23.50;88.40
52459;DHT22;38372;52.902;6.024;2023-07-13T13:21:25;23.70;87.00
52459;DHT22;38372;52.902;6.024;2023-07-13T13:23:55;23.70;87.30
52459;DHT22;38372;52.902;6.024;2023-07-13T13:26:35;23.80;85.90
52459;DHT22;38372;52.902;6.024;2023-07-13T13:29:01;23.80;85.80
52459;DHT22;38372;52.902;6.024;2023-07-13T13:31:29;23.90;86.20
52459;DHT22;38372;52.902;6.024;2023-07-13T13:33:59;23.80;86.00
52459;DHT22;38372;52.902;6.024;2023-07-13T13:36:35;23.70;86.00
52459;DHT22;38372;52.902;6.024;2023-07-13T13:39:02;23.60;87.40
52459;DHT22;38372;52.902;6.024;2023-07-13T13:41:32;23.70;87.40
52459;DHT22;38372;52.902;6.024;2023-07-13T13:43:59;23.70;87.40
52459;DHT22;38372;52.902;6.024;2023-07-13T13:46:25;23.70;87.60
52459;DHT22;38372;52.902;6.024;2023-07-13T13:48:55;23.70;87.40
52459;DHT22;38372;52.902;6.024;2023-07-13T13:51:33;23.80;87.00
52459;DHT22;38372;52.902;6.024;2023-07-13T13:54:11;24.00;86.90
52459;DHT22;38372;52.902;6.024;2023-07-13T13:56:47;23.90;86.00
52459;DHT22;38372;52.902;6.024;2023-07-13T13:59:13;23.80;86.30
52459;DHT22;38372;52.902;6.024;2023-07-13T14:01:43;23.80;86.20
52459;DHT22;38372;52.902;6.024;2023-07-13T14:04:20;23.80;86.90
52459;DHT22;38372;52.902;6.024;2023-07-13T14:06:56;24.00;86.80
52459;DHT22;38372;52.902;6.024;2023-07-13T14:09:22;24.10;86.30
52459;DHT22;38372;52.902;6.024;2023-07-13T14:11:50;24.50;86.20
52459;DHT22;38372;52.902;6.024;2023-07-13T14:14:23;24.70;85.40
52459;DHT22;38372;52.902;6.024;2023-07-13T14:16:54;24.80;84.10
52459;DHT22;38372;52.902;6.024;2023-07-13T14:19:31;24.60;84.50
52459;DHT22;38372;52.902;6.024;2023-07-13T14:21:57;24.70;85.00
52459;DHT22;38372;52.902;6.024;2023-07-13T14:24:26;24.70;84.60
52459;DHT22;38372;52.902;6.024;2023-07-13T14:26:52;24.50;84.80
52459;DHT22;38372;52.902;6.024;2023-07-13T14:29:19;24.10;85.70
52459;DHT22;38372;52.902;6.024;2023-07-13T14:31:47;23.90;86.20
52459;DHT22;38372;52.902;6.024;2023-07-13T14:34:20;23.80;86.70
52459;DHT22;38372;52.902;6.024;2023-07-13T14:36:50;23.90;86.00
52459;DHT22;38372;52.902;6.024;2023-07-13T14:39:22;23.90;85.50
52459;DHT22;38372;52.902;6.024;2023-07-13T14:41:54;23.70;85.80
52459;DHT22;38372;52.902;6.024;2023-07-13T14:44:28;23.80;86.20
52459;DHT22;38372;52.902;6.024;2023-07-13T14:46:59;24.00;86.60
52459;DHT22;38372;52.902;6.024;2023-07-13T14:49:28;23.90;86.50
52459;DHT22;38372;52.902;6.024;2023-07-13T14:51:58;23.60;87.50
52459;DHT22;38372;52.902;6.024;2023-07-13T14:54:27;23.50;88.70
52459;DHT22;38372;52.902;6.024;2023-07-13T14:56:56;23.50;88.70
52459;DHT22;38372;52.902;6.024;2023-07-13T14:59:23;23.40;89.50
52459;DHT22;38372;52.902;6.024;2023-07-13T15:01:54;23.40;90.00
52459;DHT22;38372;52.902;6.024;2023-07-13T15:04:21;23.50;89.70
52459;DHT22;38372;52.902;6.024;2023-07-13T15:06:59;23.40;89.20
52459;DHT22;38372;52.902;6.024;2023-07-13T15:09:40;23.40;90.20
52459;DHT22;38372;52.902;6.024;2023-07-13T15:12:19;23.30;89.90
52459;DHT22;38372;52.902;6.024;2023-07-13T15:14:45;23.20;90.00
52459;DHT22;38372;52.902;6.024;2023-07-13T15:17:27;23.20;89.70
52459;DHT22;38372;52.902;6.024;2023-07-13T15:19:57;23.10;90.40
52459;DHT22;38372;52.902;6.024;2023-07-13T15:22:25;23.00;90.20
52459;DHT22;38372;52.902;6.024;2023-07-13T15:24:55;23.00;90.20
52459;DHT22;38372;52.902;6.024;2023-07-13T15:27:21;22.80;90.30
52459;DHT22;38372;52.902;6.024;2023-07-13T15:29:57;22.80;90.40
52459;DHT22;38372;52.902;6.024;2023-07-13T15:32:32;22.70;90.30
52459;DHT22;38372;52.902;6.024;2023-07-13T15:35:01;22.50;90.40
52459;DHT22;38372;52.902;6.024;2023-07-13T15:37:28;22.30;90.50
52459;DHT22;38372;52.902;6.024;2023-07-13T15:39:55;22.20;90.50
52459;DHT22;38372;52.902;6.024;2023-07-13T15:42:23;22.20;90.80
52459;DHT22;38372;52.902;6.024;2023-07-13T15:44:50;22.20;90.80
52459;DHT22;38372;52.902;6.024;2023-07-13T15:47:16;22.20;90.90
52459;DHT22;38372;52.902;6.024;2023-07-13T15:49:44;22.10;90.90
52459;DHT22;38372;52.902;6.024;2023-07-13T15:52:22;21.90;91.00
52459;DHT22;38372;52.902;6.024;2023-07-13T15:54:50;21.80;91.10
52459;DHT22;38372;52.902;6.024;2023-07-13T15:57:17;21.80;91.40
52459;DHT22;38372;52.902;6.024;2023-07-13T15:59:44;21.70;91.30
52459;DHT22;38372;52.902;6.024;2023-07-13T16:02:18;21.80;91.50
52459;DHT22;38372;52.902;6.024;2023-07-13T16:04:45;21.70;91.60
52459;DHT22;38372;52.902;6.024;2023-07-13T16:07:13;21.70;91.50
52459;DHT22;38372;52.902;6.024;2023-07-13T16:09:43;21.50;91.70
52459;DHT22;38372;52.902;6.024;2023-07-13T16:12:15;21.40;91.90
52459;DHT22;38372;52.902;6.024;2023-07-13T16:14:43;21.30;92.10
52459;DHT22;38372;52.902;6.024;2023-07-13T16:17:11;21.30;92.20
52459;DHT22;38372;52.902;6.024;2023-07-13T16:19:40;21.30;92.30